Homer Airport Homer US
ICAO: PAHO
IATA:
Category: Medium
Scheduled Services:

Elevation: 84 ft
TransAlt. 18000 ft.

Airport Communications:
ASOS:135.65
ANCHORAGE CNTR:125.9
CTAF:123.6
RDO:123.6
TWEB:114.6
KENAI RDO:123.6
UNICOM:123.05

PAHO Zoom In..

If you have problems with the map follow the link
https://www.worldairports.se/pages/airport.php?
ICAO=PAHO

Runways:

(A) RW 04 length 6701 ft width 150 ft
LOC 109.30 / hdg 38

(B) RW 22 length 6701 ft width 150 ft
LOC 109.30 / hdg 218

Location; PAHO
Day. 26 / Time. 01.53 Zulu
* Altimeter: 29.45
* Temperature: -12° c. -10.4°f.
* Wind from: 030° Speed 10 kn.
Dewpoint: -22° c.
Visibility: 10 Statute Miles.
Clouds: Clear (automated report).

PAHO 260153Z 03010KT 10SM CLR M12/M22 A2945 RMK AO2 SLP976 T11221222


Wind From 030°
Speed 10 kn.

 
 
jpsmedia worldairports.se 2020   terms of use